Clarklake, Michigan
Current Conditions -  °F | °C
As of 8:56 AM on Wednesday 26 Nov 2014 (Local Time) from KJXN Reporting Station
Overcast Overcast  
Wind Chill: 20°   Ceiling: 2100
Heat Index: 27°   Visibility: 10mi
Dew Point: 20°   Wind: 6mph
Humidity: 75%   Direction: 100°E
Pressure: 30.15"   Gusts: NA
Location:  42.12°N, 84.34°W
Report Text: KJXN 261356Z 10005KT 10SM OVC021 M03/M07 A3015 RMK AO2 SLP224 T10281067
Loading
Personal Weather Stations






























Interactive Weather Map New forecast layout! Learn more

10-Day Weather Forecast

Advertisements
Track Severe Weather on mobile